パリ/シャルル・ド・ゴール の空港の天気 - METARとTAF

シャルル・ド・ゴール国際空港(パリ) ( LFPG / CDG ) - フランス Paris
飛行場実況気象(Metar)
観測時間02/01 10:00 CET (02/01 09:00 UTC)
風向・風速西南西 5m/s
視程10km以上
天気現象
全天の8割程度の雲 雲底高度 1130m
気温7℃
湿度76%
気圧1028hPa
METARLFPG 010900Z 25009KT 9999 BKN037 07/03 Q1028 NOSIG
過去の天気等 Google飛行場航空写真 Wunderground天気予報

過去48時間のMETAR

飛行場予報(TAF)
発表時間: 2/01 06:00 CET (2/01 05:00 UTC)
予報対象時間: 1日7時 CET ~ 2日13時 CET
風向・風速西 5m/s
視程10km以上
全天の8割程度の雲 雲底高度 910m
1日13時 CET ~ 1日17時 CET に一時的に
風向・風速西 8m/s 瞬間風速 13m/s
2日2時 CET ~ 2日10時 CET に 確率 40% で一時的に
全天の8割程度の雲 雲底高度 180m
TAF LFPG 010500Z 0106/0212 27010KT 9999 BKN030 TX09/0212Z TN05/0206Z
TEMPO 0112/0116 27015G25KT
PROB40 TEMPO 0201/0209 BKN006